sensor_id;sensor_type;location;lat;lon;timestamp;temperature;humidity
18335;DHT22;9293;49.524;10.964;2024-03-08T00:00:48;2.20;99.90
18335;DHT22;9293;49.524;10.964;2024-03-08T00:03:16;2.20;99.90
18335;DHT22;9293;49.524;10.964;2024-03-08T00:05:45;2.20;99.90
18335;DHT22;9293;49.524;10.964;2024-03-08T00:08:13;2.20;99.90
18335;DHT22;9293;49.524;10.964;2024-03-08T00:10:41;2.10;99.90
18335;DHT22;9293;49.524;10.964;2024-03-08T00:13:10;2.10;99.90
18335;DHT22;9293;49.524;10.964;2024-03-08T00:15:38;2.10;99.90
18335;DHT22;9293;49.524;10.964;2024-03-08T00:18:06;2.10;99.90
18335;DHT22;9293;49.524;10.964;2024-03-08T00:20:34;2.00;99.90
18335;DHT22;9293;49.524;10.964;2024-03-08T00:23:03;2.00;99.90
18335;DHT22;9293;49.524;10.964;2024-03-08T00:25:31;2.00;99.90
18335;DHT22;9293;49.524;10.964;2024-03-08T00:27:59;2.00;99.90
18335;DHT22;9293;49.524;10.964;2024-03-08T00:30:28;2.00;99.90
18335;DHT22;9293;49.524;10.964;2024-03-08T00:32:56;1.90;99.90
18335;DHT22;9293;49.524;10.964;2024-03-08T00:35:24;1.90;99.90
18335;DHT22;9293;49.524;10.964;2024-03-08T00:37:52;1.90;99.90
18335;DHT22;9293;49.524;10.964;2024-03-08T00:40:24;1.90;99.90
18335;DHT22;9293;49.524;10.964;2024-03-08T00:42:52;1.90;99.90
18335;DHT22;9293;49.524;10.964;2024-03-08T00:45:24;1.90;99.90
18335;DHT22;9293;49.524;10.964;2024-03-08T00:47:55;1.90;99.90
18335;DHT22;9293;49.524;10.964;2024-03-08T00:50:24;1.80;99.90
18335;DHT22;9293;49.524;10.964;2024-03-08T00:52:53;1.90;99.90
18335;DHT22;9293;49.524;10.964;2024-03-08T00:55:21;1.90;99.90
18335;DHT22;9293;49.524;10.964;2024-03-08T00:57:49;1.80;99.90
18335;DHT22;9293;49.524;10.964;2024-03-08T01:00:19;1.80;99.90
18335;DHT22;9293;49.524;10.964;2024-03-08T01:02:49;1.80;99.90
18335;DHT22;9293;49.524;10.964;2024-03-08T01:05:17;1.80;99.90
18335;DHT22;9293;49.524;10.964;2024-03-08T01:07:45;1.70;99.90
18335;DHT22;9293;49.524;10.964;2024-03-08T01:10:14;1.70;99.90
18335;DHT22;9293;49.524;10.964;2024-03-08T01:12:42;1.80;99.90
18335;DHT22;9293;49.524;10.964;2024-03-08T01:15:11;1.80;99.90
18335;DHT22;9293;49.524;10.964;2024-03-08T01:17:39;1.80;99.90
18335;DHT22;9293;49.524;10.964;2024-03-08T01:20:08;1.80;99.90
18335;DHT22;9293;49.524;10.964;2024-03-08T01:22:40;1.70;99.90
18335;DHT22;9293;49.524;10.964;2024-03-08T01:25:09;1.70;99.90
18335;DHT22;9293;49.524;10.964;2024-03-08T01:27:37;1.70;99.90
18335;DHT22;9293;49.524;10.964;2024-03-08T01:30:06;1.60;99.90
18335;DHT22;9293;49.524;10.964;2024-03-08T01:32:34;1.60;99.90
18335;DHT22;9293;49.524;10.964;2024-03-08T01:35:03;1.60;99.90
18335;DHT22;9293;49.524;10.964;2024-03-08T01:37:31;1.60;99.90
18335;DHT22;9293;49.524;10.964;2024-03-08T01:39:59;1.60;99.90
18335;DHT22;9293;49.524;10.964;2024-03-08T01:42:27;1.60;99.90
18335;DHT22;9293;49.524;10.964;2024-03-08T01:44:56;1.60;99.90
18335;DHT22;9293;49.524;10.964;2024-03-08T01:47:25;1.60;99.90
18335;DHT22;9293;49.524;10.964;2024-03-08T01:49:54;1.60;99.90
18335;DHT22;9293;49.524;10.964;2024-03-08T01:52:22;1.60;99.90
18335;DHT22;9293;49.524;10.964;2024-03-08T01:54:53;1.60;99.90
18335;DHT22;9293;49.524;10.964;2024-03-08T01:57:21;1.50;99.90
18335;DHT22;9293;49.524;10.964;2024-03-08T01:59:50;1.50;99.90
18335;DHT22;9293;49.524;10.964;2024-03-08T02:02:19;1.50;99.90
18335;DHT22;9293;49.524;10.964;2024-03-08T02:04:48;1.50;99.90
18335;DHT22;9293;49.524;10.964;2024-03-08T02:07:16;1.40;99.90
18335;DHT22;9293;49.524;10.964;2024-03-08T02:09:45;1.40;99.90
18335;DHT22;9293;49.524;10.964;2024-03-08T02:12:13;1.40;99.90
18335;DHT22;9293;49.524;10.964;2024-03-08T02:14:42;1.30;99.90
18335;DHT22;9293;49.524;10.964;2024-03-08T02:17:11;1.30;99.90
18335;DHT22;9293;49.524;10.964;2024-03-08T02:19:39;1.30;99.90
18335;DHT22;9293;49.524;10.964;2024-03-08T02:22:08;1.30;99.90
18335;DHT22;9293;49.524;10.964;2024-03-08T02:24:39;1.40;99.90
18335;DHT22;9293;49.524;10.964;2024-03-08T02:27:10;1.30;99.90
18335;DHT22;9293;49.524;10.964;2024-03-08T02:29:40;1.30;99.90
18335;DHT22;9293;49.524;10.964;2024-03-08T02:32:10;1.30;99.90
18335;DHT22;9293;49.524;10.964;2024-03-08T02:34:39;1.30;99.90
18335;DHT22;9293;49.524;10.964;2024-03-08T02:37:08;1.20;99.90
18335;DHT22;9293;49.524;10.964;2024-03-08T02:39:36;1.10;99.90
18335;DHT22;9293;49.524;10.964;2024-03-08T02:42:04;1.10;99.90
18335;DHT22;9293;49.524;10.964;2024-03-08T02:44:33;1.10;99.90
18335;DHT22;9293;49.524;10.964;2024-03-08T02:47:01;1.00;99.90
18335;DHT22;9293;49.524;10.964;2024-03-08T02:49:30;1.00;99.90
18335;DHT22;9293;49.524;10.964;2024-03-08T02:51:58;1.00;99.90
18335;DHT22;9293;49.524;10.964;2024-03-08T02:54:27;1.00;99.90
18335;DHT22;9293;49.524;10.964;2024-03-08T02:56:56;1.10;99.90
18335;DHT22;9293;49.524;10.964;2024-03-08T02:59:24;1.10;99.90
18335;DHT22;9293;49.524;10.964;2024-03-08T03:01:52;1.10;99.90
18335;DHT22;9293;49.524;10.964;2024-03-08T03:04:21;1.10;99.90
18335;DHT22;9293;49.524;10.964;2024-03-08T03:06:49;1.10;99.90
18335;DHT22;9293;49.524;10.964;2024-03-08T03:09:17;1.10;99.90
18335;DHT22;9293;49.524;10.964;2024-03-08T03:11:51;1.10;99.90
18335;DHT22;9293;49.524;10.964;2024-03-08T03:14:20;1.10;99.90
18335;DHT22;9293;49.524;10.964;2024-03-08T03:16:49;1.10;99.90
18335;DHT22;9293;49.524;10.964;2024-03-08T03:19:18;1.10;99.90
18335;DHT22;9293;49.524;10.964;2024-03-08T03:21:46;1.10;99.90
18335;DHT22;9293;49.524;10.964;2024-03-08T03:24:15;1.10;99.90
18335;DHT22;9293;49.524;10.964;2024-03-08T03:26:44;1.10;99.90
18335;DHT22;9293;49.524;10.964;2024-03-08T03:29:14;1.10;99.90
18335;DHT22;9293;49.524;10.964;2024-03-08T03:31:43;1.10;99.90
18335;DHT22;9293;49.524;10.964;2024-03-08T03:34:14;1.10;99.90
18335;DHT22;9293;49.524;10.964;2024-03-08T03:36:43;1.10;99.90
18335;DHT22;9293;49.524;10.964;2024-03-08T03:39:15;1.00;99.90
18335;DHT22;9293;49.524;10.964;2024-03-08T03:41:49;1.00;99.90
18335;DHT22;9293;49.524;10.964;2024-03-08T03:44:21;1.00;99.90
18335;DHT22;9293;49.524;10.964;2024-03-08T03:46:51;1.00;99.90
18335;DHT22;9293;49.524;10.964;2024-03-08T03:49:20;1.00;99.90
18335;DHT22;9293;49.524;10.964;2024-03-08T03:51:48;1.00;99.90
18335;DHT22;9293;49.524;10.964;2024-03-08T03:54:16;1.00;99.90
18335;DHT22;9293;49.524;10.964;2024-03-08T03:56:45;1.00;99.90
18335;DHT22;9293;49.524;10.964;2024-03-08T03:59:14;0.90;99.90
18335;DHT22;9293;49.524;10.964;2024-03-08T04:01:42;0.90;99.90
18335;DHT22;9293;49.524;10.964;2024-03-08T04:04:11;0.90;99.90
18335;DHT22;9293;49.524;10.964;2024-03-08T04:06:40;0.90;99.90
18335;DHT22;9293;49.524;10.964;2024-03-08T04:09:08;0.90;99.90
18335;DHT22;9293;49.524;10.964;2024-03-08T04:11:37;0.80;99.90
18335;DHT22;9293;49.524;10.964;2024-03-08T04:14:06;0.80;99.90
18335;DHT22;9293;49.524;10.964;2024-03-08T04:16:34;0.80;99.90
18335;DHT22;9293;49.524;10.964;2024-03-08T04:19:02;0.80;99.90
18335;DHT22;9293;49.524;10.964;2024-03-08T04:21:32;0.80;99.90
18335;DHT22;9293;49.524;10.964;2024-03-08T04:24:00;0.80;99.90
18335;DHT22;9293;49.524;10.964;2024-03-08T04:26:29;0.80;99.90
18335;DHT22;9293;49.524;10.964;2024-03-08T04:28:57;0.80;99.90
18335;DHT22;9293;49.524;10.964;2024-03-08T04:31:25;0.80;99.90
18335;DHT22;9293;49.524;10.964;2024-03-08T04:33:54;0.80;99.90
18335;DHT22;9293;49.524;10.964;2024-03-08T04:36:23;0.80;99.90
18335;DHT22;9293;49.524;10.964;2024-03-08T04:38:52;0.70;99.90
18335;DHT22;9293;49.524;10.964;2024-03-08T04:41:21;0.70;99.90
18335;DHT22;9293;49.524;10.964;2024-03-08T04:43:51;0.70;99.90
18335;DHT22;9293;49.524;10.964;2024-03-08T04:46:19;0.70;99.90
18335;DHT22;9293;49.524;10.964;2024-03-08T04:48:48;0.60;99.90
18335;DHT22;9293;49.524;10.964;2024-03-08T04:51:16;0.70;99.90
18335;DHT22;9293;49.524;10.964;2024-03-08T04:53:44;0.70;99.90
18335;DHT22;9293;49.524;10.964;2024-03-08T04:56:13;0.70;99.90
18335;DHT22;9293;49.524;10.964;2024-03-08T04:58:41;0.70;99.90
18335;DHT22;9293;49.524;10.964;2024-03-08T05:01:09;0.70;99.90
18335;DHT22;9293;49.524;10.964;2024-03-08T05:03:38;0.60;99.90
18335;DHT22;9293;49.524;10.964;2024-03-08T05:06:07;0.70;99.90
18335;DHT22;9293;49.524;10.964;2024-03-08T05:08:35;0.70;99.90
18335;DHT22;9293;49.524;10.964;2024-03-08T05:11:04;0.70;99.90
18335;DHT22;9293;49.524;10.964;2024-03-08T05:13:46;0.70;99.90
18335;DHT22;9293;49.524;10.964;2024-03-08T05:16:15;0.70;99.90
18335;DHT22;9293;49.524;10.964;2024-03-08T05:18:43;0.70;99.90
18335;DHT22;9293;49.524;10.964;2024-03-08T05:21:12;0.70;99.90
18335;DHT22;9293;49.524;10.964;2024-03-08T05:23:46;0.70;99.90
18335;DHT22;9293;49.524;10.964;2024-03-08T05:26:14;0.70;99.90
18335;DHT22;9293;49.524;10.964;2024-03-08T05:28:42;0.80;99.90
18335;DHT22;9293;49.524;10.964;2024-03-08T05:31:19;0.80;99.90
18335;DHT22;9293;49.524;10.964;2024-03-08T05:33:49;0.80;99.90
18335;DHT22;9293;49.524;10.964;2024-03-08T05:36:17;0.80;99.90
18335;DHT22;9293;49.524;10.964;2024-03-08T05:38:45;0.80;99.90
18335;DHT22;9293;49.524;10.964;2024-03-08T05:41:14;0.80;99.90
18335;DHT22;9293;49.524;10.964;2024-03-08T05:43:42;0.80;99.90
18335;DHT22;9293;49.524;10.964;2024-03-08T05:46:15;0.80;99.90
18335;DHT22;9293;49.524;10.964;2024-03-08T05:48:44;0.80;99.90
18335;DHT22;9293;49.524;10.964;2024-03-08T05:51:12;0.80;99.90
18335;DHT22;9293;49.524;10.964;2024-03-08T05:53:40;0.70;99.90
18335;DHT22;9293;49.524;10.964;2024-03-08T05:56:09;0.70;99.90
18335;DHT22;9293;49.524;10.964;2024-03-08T05:58:37;0.80;99.90
18335;DHT22;9293;49.524;10.964;2024-03-08T06:01:05;0.80;99.90
18335;DHT22;9293;49.524;10.964;2024-03-08T06:03:36;0.80;99.90
18335;DHT22;9293;49.524;10.964;2024-03-08T06:06:04;0.80;99.90
18335;DHT22;9293;49.524;10.964;2024-03-08T06:08:33;0.80;99.90
18335;DHT22;9293;49.524;10.964;2024-03-08T06:11:01;0.80;99.90
18335;DHT22;9293;49.524;10.964;2024-03-08T06:13:30;0.80;99.90
18335;DHT22;9293;49.524;10.964;2024-03-08T06:15:59;0.80;99.90
18335;DHT22;9293;49.524;10.964;2024-03-08T06:18:28;0.90;99.90
18335;DHT22;9293;49.524;10.964;2024-03-08T06:20:57;1.00;99.90
18335;DHT22;9293;49.524;10.964;2024-03-08T06:23:25;1.00;99.90
18335;DHT22;9293;49.524;10.964;2024-03-08T06:26:05;1.20;99.90
18335;DHT22;9293;49.524;10.964;2024-03-08T06:28:34;1.30;99.90
18335;DHT22;9293;49.524;10.964;2024-03-08T06:31:05;1.50;99.90
18335;DHT22;9293;49.524;10.964;2024-03-08T06:33:34;1.80;99.90
18335;DHT22;9293;49.524;10.964;2024-03-08T06:36:03;2.00;99.90
18335;DHT22;9293;49.524;10.964;2024-03-08T06:38:32;2.30;99.90
18335;DHT22;9293;49.524;10.964;2024-03-08T06:41:00;2.60;99.90
18335;DHT22;9293;49.524;10.964;2024-03-08T06:43:31;3.00;99.90
18335;DHT22;9293;49.524;10.964;2024-03-08T06:46:02;3.20;99.90
18335;DHT22;9293;49.524;10.964;2024-03-08T06:48:31;3.40;99.90
18335;DHT22;9293;49.524;10.964;2024-03-08T06:51:00;3.50;99.90
18335;DHT22;9293;49.524;10.964;2024-03-08T06:53:28;3.80;99.90
18335;DHT22;9293;49.524;10.964;2024-03-08T06:55:57;3.90;99.90
18335;DHT22;9293;49.524;10.964;2024-03-08T06:58:26;4.10;99.90
18335;DHT22;9293;49.524;10.964;2024-03-08T07:00:55;4.30;99.90
18335;DHT22;9293;49.524;10.964;2024-03-08T07:03:26;4.50;99.90
18335;DHT22;9293;49.524;10.964;2024-03-08T07:05:57;4.30;99.90
18335;DHT22;9293;49.524;10.964;2024-03-08T07:08:26;4.60;99.90
18335;DHT22;9293;49.524;10.964;2024-03-08T07:10:58;4.90;99.90
18335;DHT22;9293;49.524;10.964;2024-03-08T07:13:30;5.20;99.90
18335;DHT22;9293;49.524;10.964;2024-03-08T07:15:58;5.40;99.90
18335;DHT22;9293;49.524;10.964;2024-03-08T07:18:28;5.50;99.90
18335;DHT22;9293;49.524;10.964;2024-03-08T07:20:58;5.70;99.90
18335;DHT22;9293;49.524;10.964;2024-03-08T07:23:30;6.00;99.90
18335;DHT22;9293;49.524;10.964;2024-03-08T07:26:17;6.50;99.90
18335;DHT22;9293;49.524;10.964;2024-03-08T07:28:48;7.00;99.90
18335;DHT22;9293;49.524;10.964;2024-03-08T07:31:19;7.40;99.90
18335;DHT22;9293;49.524;10.964;2024-03-08T07:34:14;7.70;99.90
18335;DHT22;9293;49.524;10.964;2024-03-08T07:36:45;8.10;99.90
18335;DHT22;9293;49.524;10.964;2024-03-08T07:39:23;8.50;99.90
18335;DHT22;9293;49.524;10.964;2024-03-08T07:41:52;8.50;99.90
18335;DHT22;9293;49.524;10.964;2024-03-08T07:44:33;8.70;99.90
18335;DHT22;9293;49.524;10.964;2024-03-08T07:47:08;8.80;99.90
18335;DHT22;9293;49.524;10.964;2024-03-08T07:49:48;8.70;99.90
18335;DHT22;9293;49.524;10.964;2024-03-08T07:52:26;8.70;99.90
18335;DHT22;9293;49.524;10.964;2024-03-08T07:55:01;8.70;99.90
18335;DHT22;9293;49.524;10.964;2024-03-08T07:57:33;8.60;99.90
18335;DHT22;9293;49.524;10.964;2024-03-08T08:00:06;8.70;99.90
18335;DHT22;9293;49.524;10.964;2024-03-08T08:02:48;9.30;99.90
18335;DHT22;9293;49.524;10.964;2024-03-08T08:05:24;9.40;99.90
18335;DHT22;9293;49.524;10.964;2024-03-08T08:07:53;9.90;99.90
18335;DHT22;9293;49.524;10.964;2024-03-08T08:10:26;10.20;99.90
18335;DHT22;9293;49.524;10.964;2024-03-08T08:12:59;10.30;99.90
18335;DHT22;9293;49.524;10.964;2024-03-08T08:15:34;10.20;99.90
18335;DHT22;9293;49.524;10.964;2024-03-08T08:18:10;10.40;99.90
18335;DHT22;9293;49.524;10.964;2024-03-08T08:20:47;10.60;99.90
18335;DHT22;9293;49.524;10.964;2024-03-08T08:23:22;11.20;99.90
18335;DHT22;9293;49.524;10.964;2024-03-08T08:25:51;11.40;99.90
18335;DHT22;9293;49.524;10.964;2024-03-08T08:28:36;11.40;99.90
18335;DHT22;9293;49.524;10.964;2024-03-08T08:31:12;11.70;99.90
18335;DHT22;9293;49.524;10.964;2024-03-08T08:33:49;12.00;99.90
18335;DHT22;9293;49.524;10.964;2024-03-08T08:36:21;11.70;99.90
18335;DHT22;9293;49.524;10.964;2024-03-08T08:38:56;11.50;99.90
18335;DHT22;9293;49.524;10.964;2024-03-08T08:41:33;11.60;99.90
18335;DHT22;9293;49.524;10.964;2024-03-08T08:44:03;11.80;99.90
18335;DHT22;9293;49.524;10.964;2024-03-08T08:46:34;11.90;99.90
18335;DHT22;9293;49.524;10.964;2024-03-08T08:49:08;11.70;99.90
18335;DHT22;9293;49.524;10.964;2024-03-08T08:51:55;11.60;99.90
18335;DHT22;9293;49.524;10.964;2024-03-08T08:54:41;11.90;99.90
18335;DHT22;9293;49.524;10.964;2024-03-08T08:57:15;12.00;99.90
18335;DHT22;9293;49.524;10.964;2024-03-08T08:59:50;12.50;99.90
18335;DHT22;9293;49.524;10.964;2024-03-08T09:02:28;13.00;99.90
18335;DHT22;9293;49.524;10.964;2024-03-08T09:04:58;13.00;99.90
18335;DHT22;9293;49.524;10.964;2024-03-08T09:07:33;13.40;99.90
18335;DHT22;9293;49.524;10.964;2024-03-08T09:10:13;13.40;99.90
18335;DHT22;9293;49.524;10.964;2024-03-08T09:12:50;13.60;99.90
18335;DHT22;9293;49.524;10.964;2024-03-08T09:15:22;13.90;99.90
18335;DHT22;9293;49.524;10.964;2024-03-08T09:17:57;14.00;99.90
18335;DHT22;9293;49.524;10.964;2024-03-08T09:20:39;13.90;99.90
18335;DHT22;9293;49.524;10.964;2024-03-08T09:23:18;13.80;99.90
18335;DHT22;9293;49.524;10.964;2024-03-08T09:25:49;14.00;99.90
18335;DHT22;9293;49.524;10.964;2024-03-08T09:28:24;14.40;99.90
18335;DHT22;9293;49.524;10.964;2024-03-08T09:31:06;14.30;99.90
18335;DHT22;9293;49.524;10.964;2024-03-08T09:33:42;14.60;99.90
18335;DHT22;9293;49.524;10.964;2024-03-08T09:36:26;15.00;99.90
18335;DHT22;9293;49.524;10.964;2024-03-08T09:38:59;15.70;99.90
18335;DHT22;9293;49.524;10.964;2024-03-08T09:41:34;15.60;99.90
18335;DHT22;9293;49.524;10.964;2024-03-08T09:44:08;15.60;99.90
18335;DHT22;9293;49.524;10.964;2024-03-08T09:47:03;15.30;99.90
18335;DHT22;9293;49.524;10.964;2024-03-08T09:49:39;15.70;99.90
18335;DHT22;9293;49.524;10.964;2024-03-08T09:52:21;15.60;99.90
18335;DHT22;9293;49.524;10.964;2024-03-08T09:54:53;15.00;99.90
18335;DHT22;9293;49.524;10.964;2024-03-08T09:57:22;15.00;99.90
18335;DHT22;9293;49.524;10.964;2024-03-08T10:00:04;14.90;99.90
18335;DHT22;9293;49.524;10.964;2024-03-08T10:03:00;14.40;99.90
18335;DHT22;9293;49.524;10.964;2024-03-08T10:05:35;14.90;99.90
18335;DHT22;9293;49.524;10.964;2024-03-08T10:08:10;15.20;99.90
18335;DHT22;9293;49.524;10.964;2024-03-08T10:10:39;15.20;99.90
18335;DHT22;9293;49.524;10.964;2024-03-08T10:13:26;15.50;99.90
18335;DHT22;9293;49.524;10.964;2024-03-08T10:16:02;15.50;99.90
18335;DHT22;9293;49.524;10.964;2024-03-08T10:18:37;16.00;99.90
18335;DHT22;9293;49.524;10.964;2024-03-08T10:21:19;16.40;99.90
18335;DHT22;9293;49.524;10.964;2024-03-08T10:23:53;16.40;99.90
18335;DHT22;9293;49.524;10.964;2024-03-08T10:26:34;16.20;99.90
18335;DHT22;9293;49.524;10.964;2024-03-08T10:29:11;16.70;99.90
18335;DHT22;9293;49.524;10.964;2024-03-08T10:31:52;16.30;99.90
18335;DHT22;9293;49.524;10.964;2024-03-08T10:34:31;16.30;99.90
18335;DHT22;9293;49.524;10.964;2024-03-08T10:37:14;16.10;99.90
18335;DHT22;9293;49.524;10.964;2024-03-08T10:40:02;15.40;99.90
18335;DHT22;9293;49.524;10.964;2024-03-08T10:42:57;15.00;99.90
18335;DHT22;9293;49.524;10.964;2024-03-08T10:45:35;14.70;99.90
18335;DHT22;9293;49.524;10.964;2024-03-08T10:48:28;14.70;99.90
18335;DHT22;9293;49.524;10.964;2024-03-08T10:51:09;14.50;99.90
18335;DHT22;9293;49.524;10.964;2024-03-08T10:53:48;14.20;99.90
18335;DHT22;9293;49.524;10.964;2024-03-08T10:56:31;14.50;99.90
18335;DHT22;9293;49.524;10.964;2024-03-08T10:59:06;14.50;99.90
18335;DHT22;9293;49.524;10.964;2024-03-08T11:01:43;14.40;99.90
18335;DHT22;9293;49.524;10.964;2024-03-08T11:04:17;13.90;99.90
18335;DHT22;9293;49.524;10.964;2024-03-08T11:07:13;13.50;99.90
18335;DHT22;9293;49.524;10.964;2024-03-08T11:09:48;13.30;99.90
18335;DHT22;9293;49.524;10.964;2024-03-08T11:15:12;13.30;99.90
18335;DHT22;9293;49.524;10.964;2024-03-08T11:17:52;13.60;99.90
18335;DHT22;9293;49.524;10.964;2024-03-08T11:20:34;13.30;99.90
18335;DHT22;9293;49.524;10.964;2024-03-08T11:23:04;13.50;99.90
18335;DHT22;9293;49.524;10.964;2024-03-08T11:25:47;13.60;99.90
18335;DHT22;9293;49.524;10.964;2024-03-08T11:28:27;13.60;99.90
18335;DHT22;9293;49.524;10.964;2024-03-08T11:33:47;14.00;99.90
18335;DHT22;9293;49.524;10.964;2024-03-08T11:36:28;14.30;99.90
18335;DHT22;9293;49.524;10.964;2024-03-08T11:39:03;14.20;99.90
18335;DHT22;9293;49.524;10.964;2024-03-08T11:41:57;14.10;99.90
18335;DHT22;9293;49.524;10.964;2024-03-08T11:44:40;14.30;99.90
18335;DHT22;9293;49.524;10.964;2024-03-08T11:47:18;14.20;99.90
18335;DHT22;9293;49.524;10.964;2024-03-08T11:50:04;14.40;99.90
18335;DHT22;9293;49.524;10.964;2024-03-08T11:52:52;14.70;99.90
18335;DHT22;9293;49.524;10.964;2024-03-08T11:55:25;14.80;99.90
18335;DHT22;9293;49.524;10.964;2024-03-08T11:58:08;14.80;99.90
18335;DHT22;9293;49.524;10.964;2024-03-08T12:00:45;14.80;99.90
18335;DHT22;9293;49.524;10.964;2024-03-08T12:03:26;14.90;99.90
18335;DHT22;9293;49.524;10.964;2024-03-08T12:06:03;14.90;99.90
18335;DHT22;9293;49.524;10.964;2024-03-08T12:08:38;15.00;99.90
18335;DHT22;9293;49.524;10.964;2024-03-08T12:11:09;15.20;99.90
18335;DHT22;9293;49.524;10.964;2024-03-08T12:13:43;15.00;99.90
18335;DHT22;9293;49.524;10.964;2024-03-08T12:16:23;15.20;99.90
18335;DHT22;9293;49.524;10.964;2024-03-08T12:18:56;15.50;99.90
18335;DHT22;9293;49.524;10.964;2024-03-08T12:21:31;15.50;99.90
18335;DHT22;9293;49.524;10.964;2024-03-08T12:24:10;15.20;99.90
18335;DHT22;9293;49.524;10.964;2024-03-08T12:26:51;14.50;99.90
18335;DHT22;9293;49.524;10.964;2024-03-08T12:29:31;14.50;99.90
18335;DHT22;9293;49.524;10.964;2024-03-08T12:32:10;14.70;99.90
18335;DHT22;9293;49.524;10.964;2024-03-08T12:34:55;14.70;99.90
18335;DHT22;9293;49.524;10.964;2024-03-08T12:37:28;14.60;99.90
18335;DHT22;9293;49.524;10.964;2024-03-08T12:39:57;14.70;99.90
18335;DHT22;9293;49.524;10.964;2024-03-08T12:42:27;15.10;99.90
18335;DHT22;9293;49.524;10.964;2024-03-08T12:44:59;15.40;99.90
18335;DHT22;9293;49.524;10.964;2024-03-08T12:47:30;15.60;99.90
18335;DHT22;9293;49.524;10.964;2024-03-08T12:50:03;15.70;99.90
18335;DHT22;9293;49.524;10.964;2024-03-08T12:52:32;15.90;99.90
18335;DHT22;9293;49.524;10.964;2024-03-08T12:55:09;16.10;99.90
18335;DHT22;9293;49.524;10.964;2024-03-08T12:57:38;15.60;99.90
18335;DHT22;9293;49.524;10.964;2024-03-08T13:00:07;15.60;99.90
18335;DHT22;9293;49.524;10.964;2024-03-08T13:02:42;16.10;99.90
18335;DHT22;9293;49.524;10.964;2024-03-08T13:05:14;16.30;99.90
18335;DHT22;9293;49.524;10.964;2024-03-08T13:07:44;16.00;99.90
18335;DHT22;9293;49.524;10.964;2024-03-08T13:10:20;16.20;99.90
18335;DHT22;9293;49.524;10.964;2024-03-08T13:12:52;16.40;99.90
18335;DHT22;9293;49.524;10.964;2024-03-08T13:15:25;16.40;99.90
18335;DHT22;9293;49.524;10.964;2024-03-08T13:17:54;16.40;99.90
18335;DHT22;9293;49.524;10.964;2024-03-08T13:20:28;16.40;99.90
18335;DHT22;9293;49.524;10.964;2024-03-08T13:23:09;16.50;99.90
18335;DHT22;9293;49.524;10.964;2024-03-08T13:25:41;16.60;99.90
18335;DHT22;9293;49.524;10.964;2024-03-08T13:28:10;16.80;99.90
18335;DHT22;9293;49.524;10.964;2024-03-08T13:30:39;17.00;99.90
18335;DHT22;9293;49.524;10.964;2024-03-08T13:33:09;16.60;99.90
18335;DHT22;9293;49.524;10.964;2024-03-08T13:35:41;16.40;99.90
18335;DHT22;9293;49.524;10.964;2024-03-08T13:38:15;16.20;99.90
18335;DHT22;9293;49.524;10.964;2024-03-08T13:40:54;16.20;99.90
18335;DHT22;9293;49.524;10.964;2024-03-08T13:43:31;16.40;99.90
18335;DHT22;9293;49.524;10.964;2024-03-08T13:46:04;16.50;99.90
18335;DHT22;9293;49.524;10.964;2024-03-08T13:48:38;16.00;99.90
18335;DHT22;9293;49.524;10.964;2024-03-08T13:51:11;16.00;99.90
18335;DHT22;9293;49.524;10.964;2024-03-08T13:53:44;16.30;99.90
18335;DHT22;9293;49.524;10.964;2024-03-08T13:56:13;16.40;99.90
18335;DHT22;9293;49.524;10.964;2024-03-08T13:58:43;16.30;99.90
18335;DHT22;9293;49.524;10.964;2024-03-08T14:01:22;16.40;99.90
18335;DHT22;9293;49.524;10.964;2024-03-08T14:03:54;16.50;99.90
18335;DHT22;9293;49.524;10.964;2024-03-08T14:06:27;16.20;99.90
18335;DHT22;9293;49.524;10.964;2024-03-08T14:09:02;16.00;99.90
18335;DHT22;9293;49.524;10.964;2024-03-08T14:11:40;15.90;99.90
18335;DHT22;9293;49.524;10.964;2024-03-08T14:14:11;15.60;99.90
18335;DHT22;9293;49.524;10.964;2024-03-08T14:16:43;15.80;99.90
18335;DHT22;9293;49.524;10.964;2024-03-08T14:19:12;16.00;99.90
18335;DHT22;9293;49.524;10.964;2024-03-08T14:21:51;16.40;99.90
18335;DHT22;9293;49.524;10.964;2024-03-08T14:24:25;16.30;99.90
18335;DHT22;9293;49.524;10.964;2024-03-08T14:26:55;16.10;99.90
18335;DHT22;9293;49.524;10.964;2024-03-08T14:29:27;16.10;99.90
18335;DHT22;9293;49.524;10.964;2024-03-08T14:32:02;15.90;99.90
18335;DHT22;9293;49.524;10.964;2024-03-08T14:34:38;15.50;99.90
18335;DHT22;9293;49.524;10.964;2024-03-08T14:37:09;15.30;99.90
18335;DHT22;9293;49.524;10.964;2024-03-08T14:39:52;15.40;99.90
18335;DHT22;9293;49.524;10.964;2024-03-08T14:42:26;15.50;99.90
18335;DHT22;9293;49.524;10.964;2024-03-08T14:45:01;15.50;99.90
18335;DHT22;9293;49.524;10.964;2024-03-08T14:47:33;15.40;99.90
18335;DHT22;9293;49.524;10.964;2024-03-08T14:50:06;15.30;99.90
18335;DHT22;9293;49.524;10.964;2024-03-08T14:52:44;15.30;99.90
18335;DHT22;9293;49.524;10.964;2024-03-08T14:55:16;15.20;99.90
18335;DHT22;9293;49.524;10.964;2024-03-08T14:57:51;15.20;99.90
18335;DHT22;9293;49.524;10.964;2024-03-08T15:00:23;15.40;99.90
18335;DHT22;9293;49.524;10.964;2024-03-08T15:02:59;15.40;99.90
18335;DHT22;9293;49.524;10.964;2024-03-08T15:05:35;15.30;99.90
18335;DHT22;9293;49.524;10.964;2024-03-08T15:08:12;15.20;99.90
18335;DHT22;9293;49.524;10.964;2024-03-08T15:10:53;15.20;99.90
18335;DHT22;9293;49.524;10.964;2024-03-08T15:13:25;15.00;99.90
18335;DHT22;9293;49.524;10.964;2024-03-08T15:16:05;15.00;99.90
18335;DHT22;9293;49.524;10.964;2024-03-08T15:18:38;15.20;99.90
18335;DHT22;9293;49.524;10.964;2024-03-08T15:21:07;15.00;99.90
18335;DHT22;9293;49.524;10.964;2024-03-08T15:23:40;15.20;99.90
18335;DHT22;9293;49.524;10.964;2024-03-08T15:26:16;15.00;99.90
18335;DHT22;9293;49.524;10.964;2024-03-08T15:28:51;14.80;99.90
18335;DHT22;9293;49.524;10.964;2024-03-08T15:31:24;14.80;99.90
18335;DHT22;9293;49.524;10.964;2024-03-08T15:33:57;14.80;99.90
18335;DHT22;9293;49.524;10.964;2024-03-08T15:36:35;14.70;99.90
18335;DHT22;9293;49.524;10.964;2024-03-08T15:39:09;14.50;99.90
18335;DHT22;9293;49.524;10.964;2024-03-08T15:41:40;14.50;99.90
18335;DHT22;9293;49.524;10.964;2024-03-08T15:44:17;14.50;99.90
18335;DHT22;9293;49.524;10.964;2024-03-08T15:46:48;14.20;99.90
18335;DHT22;9293;49.524;10.964;2024-03-08T15:49:25;13.80;99.90
18335;DHT22;9293;49.524;10.964;2024-03-08T15:52:05;13.40;99.90
18335;DHT22;9293;49.524;10.964;2024-03-08T15:54:39;13.20;99.90
18335;DHT22;9293;49.524;10.964;2024-03-08T15:57:13;12.80;99.90
18335;DHT22;9293;49.524;10.964;2024-03-08T15:59:47;12.80;99.90
18335;DHT22;9293;49.524;10.964;2024-03-08T16:02:19;12.70;99.90
18335;DHT22;9293;49.524;10.964;2024-03-08T16:04:57;12.40;99.90
18335;DHT22;9293;49.524;10.964;2024-03-08T16:07:26;12.30;99.90
18335;DHT22;9293;49.524;10.964;2024-03-08T16:09:59;12.10;99.90
18335;DHT22;9293;49.524;10.964;2024-03-08T16:12:39;11.90;99.90
18335;DHT22;9293;49.524;10.964;2024-03-08T16:15:26;11.80;99.90
18335;DHT22;9293;49.524;10.964;2024-03-08T16:18:00;11.50;99.90